Elk Garden, Virginia
Current Conditions -  °F | °C
As of 9:15 PM on Thursday 20 Nov 2014 (Local Time) from KJFZ Reporting Station
Clear Clear  
Wind Chill: 26°   Ceiling: Unl
Heat Index: 35°   Visibility: 10mi
Dew Point: 15°   Wind: 13mph
Humidity: 45%   Direction: 280°W
Pressure: 30.11"   Gusts: 18mph
Location:  37.0328°N, 82.0042°W
Report Text: KJFZ 210215Z AUTO 28011G16KT 260V320 10SM CLR 02/M09 A3011 RMK AO2 T00161092
Loading
Personal Weather Stations






























Interactive Weather Map New forecast layout! Learn more

10-Day Weather Forecast

Advertisements
Track Severe Weather on mobile